sensor_id;sensor_type;location;lat;lon;timestamp;P1;durP1;ratioP1;P2;durP2;ratioP2
14052;SDS011;7101;51.600;7.310;2023-07-20T00:02:02;6.80;;;3.72;;
14052;SDS011;7101;51.600;7.310;2023-07-20T00:04:32;6.30;;;3.92;;
14052;SDS011;7101;51.600;7.310;2023-07-20T00:06:59;6.95;;;3.70;;
14052;SDS011;7101;51.600;7.310;2023-07-20T00:09:26;5.13;;;3.83;;
14052;SDS011;7101;51.600;7.310;2023-07-20T00:11:55;5.38;;;3.30;;
14052;SDS011;7101;51.600;7.310;2023-07-20T00:14:25;5.30;;;3.78;;
14052;SDS011;7101;51.600;7.310;2023-07-20T00:16:52;6.72;;;3.50;;
14052;SDS011;7101;51.600;7.310;2023-07-20T00:19:21;5.60;;;3.80;;
14052;SDS011;7101;51.600;7.310;2023-07-20T00:21:49;8.43;;;3.60;;
14052;SDS011;7101;51.600;7.310;2023-07-20T00:24:16;4.47;;;3.33;;
14052;SDS011;7101;51.600;7.310;2023-07-20T00:26:43;4.65;;;3.58;;
14052;SDS011;7101;51.600;7.310;2023-07-20T00:29:12;4.85;;;3.20;;
14052;SDS011;7101;51.600;7.310;2023-07-20T00:31:39;6.05;;;3.30;;
14052;SDS011;7101;51.600;7.310;2023-07-20T00:34:07;9.80;;;3.67;;
14052;SDS011;7101;51.600;7.310;2023-07-20T00:36:35;6.40;;;3.80;;
14052;SDS011;7101;51.600;7.310;2023-07-20T00:39:02;9.05;;;3.80;;
14052;SDS011;7101;51.600;7.310;2023-07-20T00:41:29;5.13;;;3.63;;
14052;SDS011;7101;51.600;7.310;2023-07-20T00:43:57;4.82;;;3.53;;
14052;SDS011;7101;51.600;7.310;2023-07-20T00:46:26;7.45;;;3.70;;
14052;SDS011;7101;51.600;7.310;2023-07-20T00:49:00;5.78;;;3.25;;
14052;SDS011;7101;51.600;7.310;2023-07-20T00:51:28;4.43;;;3.40;;
14052;SDS011;7101;51.600;7.310;2023-07-20T00:53:55;5.22;;;3.47;;
14052;SDS011;7101;51.600;7.310;2023-07-20T00:56:22;5.30;;;3.50;;
14052;SDS011;7101;51.600;7.310;2023-07-20T00:58:49;5.25;;;3.50;;
14052;SDS011;7101;51.600;7.310;2023-07-20T01:01:17;6.78;;;3.78;;
14052;SDS011;7101;51.600;7.310;2023-07-20T01:03:45;7.30;;;3.70;;
14052;SDS011;7101;51.600;7.310;2023-07-20T01:06:18;4.25;;;3.40;;
14052;SDS011;7101;51.600;7.310;2023-07-20T01:09:00;5.63;;;3.65;;
14052;SDS011;7101;51.600;7.310;2023-07-20T01:11:34;6.15;;;3.70;;
14052;SDS011;7101;51.600;7.310;2023-07-20T01:14:05;5.30;;;3.45;;
14052;SDS011;7101;51.600;7.310;2023-07-20T01:16:33;7.28;;;3.63;;
14052;SDS011;7101;51.600;7.310;2023-07-20T01:19:01;5.80;;;3.58;;
14052;SDS011;7101;51.600;7.310;2023-07-20T01:21:31;6.53;;;3.40;;
14052;SDS011;7101;51.600;7.310;2023-07-20T01:30:32;6.00;;;3.92;;
14052;SDS011;7101;51.600;7.310;2023-07-20T01:33:12;8.38;;;4.30;;
14052;SDS011;7101;51.600;7.310;2023-07-20T01:35:42;7.07;;;3.90;;
14052;SDS011;7101;51.600;7.310;2023-07-20T01:38:12;5.40;;;3.70;;
14052;SDS011;7101;51.600;7.310;2023-07-20T01:40:40;6.43;;;3.75;;
14052;SDS011;7101;51.600;7.310;2023-07-20T01:43:08;4.78;;;3.53;;
14052;SDS011;7101;51.600;7.310;2023-07-20T01:45:36;7.82;;;4.35;;
14052;SDS011;7101;51.600;7.310;2023-07-20T01:48:03;7.50;;;5.65;;
14052;SDS011;7101;51.600;7.310;2023-07-20T01:50:32;7.13;;;5.05;;
14052;SDS011;7101;51.600;7.310;2023-07-20T01:52:59;8.23;;;5.13;;
14052;SDS011;7101;51.600;7.310;2023-07-20T01:55:26;7.72;;;5.80;;
14052;SDS011;7101;51.600;7.310;2023-07-20T01:57:54;7.85;;;5.63;;
14052;SDS011;7101;51.600;7.310;2023-07-20T02:00:21;8.02;;;5.93;;
14052;SDS011;7101;51.600;7.310;2023-07-20T02:02:49;10.23;;;5.82;;
14052;SDS011;7101;51.600;7.310;2023-07-20T02:05:16;8.85;;;5.72;;
14052;SDS011;7101;51.600;7.310;2023-07-20T02:07:45;11.60;;;6.07;;
14052;SDS011;7101;51.600;7.310;2023-07-20T02:10:12;7.80;;;5.80;;
14052;SDS011;7101;51.600;7.310;2023-07-20T02:12:39;8.95;;;5.88;;
14052;SDS011;7101;51.600;7.310;2023-07-20T02:15:07;7.18;;;5.15;;
14052;SDS011;7101;51.600;7.310;2023-07-20T02:17:34;5.30;;;4.53;;
14052;SDS011;7101;51.600;7.310;2023-07-20T02:20:02;9.10;;;5.28;;
14052;SDS011;7101;51.600;7.310;2023-07-20T02:22:29;8.05;;;5.60;;
14052;SDS011;7101;51.600;7.310;2023-07-20T02:24:58;7.82;;;5.57;;
14052;SDS011;7101;51.600;7.310;2023-07-20T02:27:25;9.38;;;5.43;;
14052;SDS011;7101;51.600;7.310;2023-07-20T02:29:51;6.97;;;5.15;;
14052;SDS011;7101;51.600;7.310;2023-07-20T02:32:18;9.15;;;5.47;;
14052;SDS011;7101;51.600;7.310;2023-07-20T02:34:45;11.48;;;5.60;;
14052;SDS011;7101;51.600;7.310;2023-07-20T02:37:13;9.60;;;6.05;;
14052;SDS011;7101;51.600;7.310;2023-07-20T02:39:39;8.32;;;5.30;;
14052;SDS011;7101;51.600;7.310;2023-07-20T02:42:07;7.10;;;5.95;;
14052;SDS011;7101;51.600;7.310;2023-07-20T02:44:34;9.40;;;6.28;;
14052;SDS011;7101;51.600;7.310;2023-07-20T02:47:01;11.30;;;6.60;;
14052;SDS011;7101;51.600;7.310;2023-07-20T02:49:27;7.88;;;5.93;;
14052;SDS011;7101;51.600;7.310;2023-07-20T02:51:54;12.18;;;6.68;;
14052;SDS011;7101;51.600;7.310;2023-07-20T02:54:21;7.43;;;6.68;;
14052;SDS011;7101;51.600;7.310;2023-07-20T02:56:48;11.68;;;7.40;;
14052;SDS011;7101;51.600;7.310;2023-07-20T02:59:20;9.45;;;6.80;;
14052;SDS011;7101;51.600;7.310;2023-07-20T03:01:47;8.75;;;7.85;;
14052;SDS011;7101;51.600;7.310;2023-07-20T03:04:16;12.63;;;8.90;;
14052;SDS011;7101;51.600;7.310;2023-07-20T03:06:43;12.05;;;9.65;;
14052;SDS011;7101;51.600;7.310;2023-07-20T03:09:10;13.88;;;10.25;;
14052;SDS011;7101;51.600;7.310;2023-07-20T03:11:37;12.82;;;10.52;;
14052;SDS011;7101;51.600;7.310;2023-07-20T03:14:04;13.18;;;10.30;;
14052;SDS011;7101;51.600;7.310;2023-07-20T03:16:32;10.77;;;9.68;;
14052;SDS011;7101;51.600;7.310;2023-07-20T03:18:59;14.25;;;9.70;;
14052;SDS011;7101;51.600;7.310;2023-07-20T03:21:26;10.38;;;8.40;;
14052;SDS011;7101;51.600;7.310;2023-07-20T03:23:54;8.93;;;7.45;;
14052;SDS011;7101;51.600;7.310;2023-07-20T03:26:20;9.05;;;7.35;;
14052;SDS011;7101;51.600;7.310;2023-07-20T03:28:48;9.63;;;8.32;;
14052;SDS011;7101;51.600;7.310;2023-07-20T03:31:15;11.93;;;9.40;;
14052;SDS011;7101;51.600;7.310;2023-07-20T03:33:43;10.57;;;9.45;;
14052;SDS011;7101;51.600;7.310;2023-07-20T03:36:11;10.10;;;8.80;;
14052;SDS011;7101;51.600;7.310;2023-07-20T03:38:38;13.07;;;9.30;;
14052;SDS011;7101;51.600;7.310;2023-07-20T03:41:05;10.57;;;9.05;;
14052;SDS011;7101;51.600;7.310;2023-07-20T03:43:32;17.52;;;10.45;;
14052;SDS011;7101;51.600;7.310;2023-07-20T03:45:59;15.45;;;10.60;;
14052;SDS011;7101;51.600;7.310;2023-07-20T03:48:31;16.92;;;12.93;;
14052;SDS011;7101;51.600;7.310;2023-07-20T03:51:00;18.08;;;14.15;;
14052;SDS011;7101;51.600;7.310;2023-07-20T03:53:27;18.63;;;14.13;;
14052;SDS011;7101;51.600;7.310;2023-07-20T03:55:54;20.45;;;13.65;;
14052;SDS011;7101;51.600;7.310;2023-07-20T03:58:21;16.35;;;14.60;;
14052;SDS011;7101;51.600;7.310;2023-07-20T04:00:49;19.75;;;14.13;;
14052;SDS011;7101;51.600;7.310;2023-07-20T04:03:17;21.15;;;15.00;;
14052;SDS011;7101;51.600;7.310;2023-07-20T04:05:44;23.40;;;14.90;;
14052;SDS011;7101;51.600;7.310;2023-07-20T04:08:13;17.73;;;14.00;;
14052;SDS011;7101;51.600;7.310;2023-07-20T04:10:43;16.13;;;14.57;;
14052;SDS011;7101;51.600;7.310;2023-07-20T04:13:10;18.73;;;14.93;;
14052;SDS011;7101;51.600;7.310;2023-07-20T04:15:39;20.13;;;14.02;;
14052;SDS011;7101;51.600;7.310;2023-07-20T04:18:06;17.52;;;14.35;;
14052;SDS011;7101;51.600;7.310;2023-07-20T04:20:33;17.50;;;13.95;;
14052;SDS011;7101;51.600;7.310;2023-07-20T04:23:00;18.65;;;14.60;;
14052;SDS011;7101;51.600;7.310;2023-07-20T04:25:29;16.48;;;13.75;;
14052;SDS011;7101;51.600;7.310;2023-07-20T04:28:04;15.93;;;14.15;;
14052;SDS011;7101;51.600;7.310;2023-07-20T04:30:34;15.05;;;12.80;;
14052;SDS011;7101;51.600;7.310;2023-07-20T04:33:01;16.70;;;12.80;;
14052;SDS011;7101;51.600;7.310;2023-07-20T04:35:48;13.80;;;12.30;;
14052;SDS011;7101;51.600;7.310;2023-07-20T04:38:16;14.85;;;11.90;;
14052;SDS011;7101;51.600;7.310;2023-07-20T04:40:45;12.98;;;10.70;;
14052;SDS011;7101;51.600;7.310;2023-07-20T04:43:13;12.23;;;10.25;;
14052;SDS011;7101;51.600;7.310;2023-07-20T04:45:40;10.55;;;9.45;;
14052;SDS011;7101;51.600;7.310;2023-07-20T04:48:09;15.20;;;9.38;;
14052;SDS011;7101;51.600;7.310;2023-07-20T04:50:37;10.98;;;9.85;;
14052;SDS011;7101;51.600;7.310;2023-07-20T04:53:08;11.65;;;10.00;;
14052;SDS011;7101;51.600;7.310;2023-07-20T04:55:37;10.88;;;9.00;;
14052;SDS011;7101;51.600;7.310;2023-07-20T04:58:06;10.48;;;8.73;;
14052;SDS011;7101;51.600;7.310;2023-07-20T05:00:33;10.57;;;8.27;;
14052;SDS011;7101;51.600;7.310;2023-07-20T05:03:01;11.40;;;9.02;;
14052;SDS011;7101;51.600;7.310;2023-07-20T05:05:30;10.05;;;8.77;;
14052;SDS011;7101;51.600;7.310;2023-07-20T05:07:57;9.98;;;8.88;;
14052;SDS011;7101;51.600;7.310;2023-07-20T05:10:24;9.82;;;8.02;;
14052;SDS011;7101;51.600;7.310;2023-07-20T05:12:51;9.13;;;8.10;;
14052;SDS011;7101;51.600;7.310;2023-07-20T05:15:19;8.73;;;7.53;;
14052;SDS011;7101;51.600;7.310;2023-07-20T05:17:46;10.15;;;7.75;;
14052;SDS011;7101;51.600;7.310;2023-07-20T05:20:14;9.70;;;7.50;;
14052;SDS011;7101;51.600;7.310;2023-07-20T05:22:41;7.32;;;6.63;;
14052;SDS011;7101;51.600;7.310;2023-07-20T05:25:08;7.30;;;6.60;;
14052;SDS011;7101;51.600;7.310;2023-07-20T05:27:37;7.50;;;6.80;;
14052;SDS011;7101;51.600;7.310;2023-07-20T05:30:06;7.63;;;6.90;;
14052;SDS011;7101;51.600;7.310;2023-07-20T05:32:36;6.95;;;6.22;;
14052;SDS011;7101;51.600;7.310;2023-07-20T05:35:03;7.05;;;5.82;;
14052;SDS011;7101;51.600;7.310;2023-07-20T05:37:31;7.82;;;5.60;;
14052;SDS011;7101;51.600;7.310;2023-07-20T05:39:58;7.03;;;5.25;;
14052;SDS011;7101;51.600;7.310;2023-07-20T05:42:25;5.00;;;4.53;;
14052;SDS011;7101;51.600;7.310;2023-07-20T05:44:52;5.25;;;4.75;;
14052;SDS011;7101;51.600;7.310;2023-07-20T05:47:20;4.53;;;4.13;;
14052;SDS011;7101;51.600;7.310;2023-07-20T05:49:48;4.55;;;4.15;;
14052;SDS011;7101;51.600;7.310;2023-07-20T05:52:15;4.40;;;4.00;;
14052;SDS011;7101;51.600;7.310;2023-07-20T05:54:43;5.82;;;3.95;;
14052;SDS011;7101;51.600;7.310;2023-07-20T05:57:10;4.25;;;3.80;;
14052;SDS011;7101;51.600;7.310;2023-07-20T05:59:37;4.57;;;4.13;;
14052;SDS011;7101;51.600;7.310;2023-07-20T06:02:05;4.60;;;4.20;;
14052;SDS011;7101;51.600;7.310;2023-07-20T06:04:34;5.65;;;4.22;;
14052;SDS011;7101;51.600;7.310;2023-07-20T06:07:02;5.13;;;4.63;;
14052;SDS011;7101;51.600;7.310;2023-07-20T06:09:29;5.65;;;5.13;;
14052;SDS011;7101;51.600;7.310;2023-07-20T06:11:56;5.00;;;4.53;;
14052;SDS011;7101;51.600;7.310;2023-07-20T06:14:23;4.97;;;4.47;;
14052;SDS011;7101;51.600;7.310;2023-07-20T06:16:50;5.38;;;4.88;;
14052;SDS011;7101;51.600;7.310;2023-07-20T06:19:17;5.82;;;5.20;;
14052;SDS011;7101;51.600;7.310;2023-07-20T06:21:45;5.07;;;4.57;;
14052;SDS011;7101;51.600;7.310;2023-07-20T06:24:13;7.85;;;4.53;;
14052;SDS011;7101;51.600;7.310;2023-07-20T06:26:40;5.30;;;4.80;;
14052;SDS011;7101;51.600;7.310;2023-07-20T06:29:07;4.65;;;4.25;;
14052;SDS011;7101;51.600;7.310;2023-07-20T06:31:35;4.47;;;4.07;;
14052;SDS011;7101;51.600;7.310;2023-07-20T06:34:03;5.40;;;4.43;;
14052;SDS011;7101;51.600;7.310;2023-07-20T06:36:30;4.30;;;3.88;;
14052;SDS011;7101;51.600;7.310;2023-07-20T06:38:57;4.45;;;4.05;;
14052;SDS011;7101;51.600;7.310;2023-07-20T06:41:30;4.80;;;4.07;;
14052;SDS011;7101;51.600;7.310;2023-07-20T06:43:57;4.15;;;3.75;;
14052;SDS011;7101;51.600;7.310;2023-07-20T06:46:25;3.42;;;3.13;;
14052;SDS011;7101;51.600;7.310;2023-07-20T06:48:52;3.30;;;3.00;;
14052;SDS011;7101;51.600;7.310;2023-07-20T06:51:19;3.50;;;3.20;;
14052;SDS011;7101;51.600;7.310;2023-07-20T06:53:47;4.55;;;3.20;;
14052;SDS011;7101;51.600;7.310;2023-07-20T06:56:14;4.25;;;2.83;;
14052;SDS011;7101;51.600;7.310;2023-07-20T06:58:42;3.22;;;2.67;;
14052;SDS011;7101;51.600;7.310;2023-07-20T07:01:09;3.65;;;2.60;;
14052;SDS011;7101;51.600;7.310;2023-07-20T07:03:36;2.70;;;2.50;;
14052;SDS011;7101;51.600;7.310;2023-07-20T07:06:03;2.47;;;1.73;;
14052;SDS011;7101;51.600;7.310;2023-07-20T07:08:31;2.10;;;1.90;;
14052;SDS011;7101;51.600;7.310;2023-07-20T07:10:58;1.90;;;1.73;;
14052;SDS011;7101;51.600;7.310;2023-07-20T07:13:26;2.10;;;1.70;;
14052;SDS011;7101;51.600;7.310;2023-07-20T07:15:54;2.72;;;1.60;;
14052;SDS011;7101;51.600;7.310;2023-07-20T07:18:22;2.55;;;1.70;;
14052;SDS011;7101;51.600;7.310;2023-07-20T07:20:51;1.90;;;1.50;;
14052;SDS011;7101;51.600;7.310;2023-07-20T07:23:19;1.95;;;1.15;;
14052;SDS011;7101;51.600;7.310;2023-07-20T07:25:46;2.95;;;1.20;;
14052;SDS011;7101;51.600;7.310;2023-07-20T07:28:13;1.58;;;1.27;;
14052;SDS011;7101;51.600;7.310;2023-07-20T07:30:40;1.27;;;1.10;;
14052;SDS011;7101;51.600;7.310;2023-07-20T07:33:10;1.27;;;1.10;;
14052;SDS011;7101;51.600;7.310;2023-07-20T07:35:38;1.75;;;1.30;;
14052;SDS011;7101;51.600;7.310;2023-07-20T07:38:06;1.60;;;1.45;;
14052;SDS011;7101;51.600;7.310;2023-07-20T07:40:33;2.05;;;1.30;;
14052;SDS011;7101;51.600;7.310;2023-07-20T07:43:00;1.95;;;1.20;;
14052;SDS011;7101;51.600;7.310;2023-07-20T07:45:27;1.70;;;1.50;;
14052;SDS011;7101;51.600;7.310;2023-07-20T07:47:54;2.33;;;1.50;;
14052;SDS011;7101;51.600;7.310;2023-07-20T07:50:22;1.13;;;0.90;;
14052;SDS011;7101;51.600;7.310;2023-07-20T07:52:49;1.77;;;1.08;;
14052;SDS011;7101;51.600;7.310;2023-07-20T07:55:17;1.35;;;0.90;;
14052;SDS011;7101;51.600;7.310;2023-07-20T07:57:44;2.08;;;0.90;;
14052;SDS011;7101;51.600;7.310;2023-07-20T08:00:13;1.55;;;0.90;;
14052;SDS011;7101;51.600;7.310;2023-07-20T08:02:44;2.08;;;1.13;;
14052;SDS011;7101;51.600;7.310;2023-07-20T08:05:13;1.90;;;1.05;;
14052;SDS011;7101;51.600;7.310;2023-07-20T08:07:42;1.88;;;0.90;;
14052;SDS011;7101;51.600;7.310;2023-07-20T08:10:09;2.05;;;0.82;;
14052;SDS011;7101;51.600;7.310;2023-07-20T08:12:36;1.20;;;1.00;;
14052;SDS011;7101;51.600;7.310;2023-07-20T08:15:07;0.98;;;0.90;;
14052;SDS011;7101;51.600;7.310;2023-07-20T08:17:34;2.38;;;1.00;;
14052;SDS011;7101;51.600;7.310;2023-07-20T08:20:02;1.08;;;0.95;;
14052;SDS011;7101;51.600;7.310;2023-07-20T08:22:31;1.63;;;0.80;;
14052;SDS011;7101;51.600;7.310;2023-07-20T08:25:00;1.38;;;0.88;;
14052;SDS011;7101;51.600;7.310;2023-07-20T08:27:27;1.20;;;1.00;;
14052;SDS011;7101;51.600;7.310;2023-07-20T08:29:56;3.17;;;1.13;;
14052;SDS011;7101;51.600;7.310;2023-07-20T08:32:23;1.23;;;0.98;;
14052;SDS011;7101;51.600;7.310;2023-07-20T08:34:50;1.23;;;0.90;;
14052;SDS011;7101;51.600;7.310;2023-07-20T08:37:17;1.58;;;0.90;;
14052;SDS011;7101;51.600;7.310;2023-07-20T08:39:44;0.70;;;0.70;;
14052;SDS011;7101;51.600;7.310;2023-07-20T08:42:12;2.20;;;1.10;;
14052;SDS011;7101;51.600;7.310;2023-07-20T08:44:42;0.80;;;0.73;;
14052;SDS011;7101;51.600;7.310;2023-07-20T08:47:11;2.15;;;0.93;;
14052;SDS011;7101;51.600;7.310;2023-07-20T08:49:40;1.98;;;1.00;;
14052;SDS011;7101;51.600;7.310;2023-07-20T08:52:08;1.02;;;0.93;;
14052;SDS011;7101;51.600;7.310;2023-07-20T08:54:36;1.08;;;0.90;;
14052;SDS011;7101;51.600;7.310;2023-07-20T08:57:04;1.65;;;1.10;;
14052;SDS011;7101;51.600;7.310;2023-07-20T08:59:33;0.77;;;0.75;;
14052;SDS011;7101;51.600;7.310;2023-07-20T09:02:02;1.25;;;0.80;;
14052;SDS011;7101;51.600;7.310;2023-07-20T09:04:31;0.88;;;0.80;;
14052;SDS011;7101;51.600;7.310;2023-07-20T09:06:58;3.05;;;1.00;;
14052;SDS011;7101;51.600;7.310;2023-07-20T09:09:27;3.90;;;0.80;;
14052;SDS011;7101;51.600;7.310;2023-07-20T09:11:54;5.18;;;0.90;;
14052;SDS011;7101;51.600;7.310;2023-07-20T09:14:21;1.60;;;0.80;;
14052;SDS011;7101;51.600;7.310;2023-07-20T09:16:52;1.55;;;1.00;;
14052;SDS011;7101;51.600;7.310;2023-07-20T09:19:20;1.15;;;0.90;;
14052;SDS011;7101;51.600;7.310;2023-07-20T09:21:48;1.85;;;0.70;;
14052;SDS011;7101;51.600;7.310;2023-07-20T09:24:16;1.92;;;0.90;;
14052;SDS011;7101;51.600;7.310;2023-07-20T09:26:44;1.83;;;0.90;;
14052;SDS011;7101;51.600;7.310;2023-07-20T09:29:13;1.85;;;1.00;;
14052;SDS011;7101;51.600;7.310;2023-07-20T09:31:41;0.70;;;0.70;;
14052;SDS011;7101;51.600;7.310;2023-07-20T09:34:09;1.08;;;0.80;;
14052;SDS011;7101;51.600;7.310;2023-07-20T09:36:36;1.23;;;0.80;;
14052;SDS011;7101;51.600;7.310;2023-07-20T09:39:03;2.55;;;0.88;;
14052;SDS011;7101;51.600;7.310;2023-07-20T09:41:39;1.52;;;0.90;;
14052;SDS011;7101;51.600;7.310;2023-07-20T09:44:08;1.05;;;0.70;;
14052;SDS011;7101;51.600;7.310;2023-07-20T09:46:43;2.03;;;0.75;;
14052;SDS011;7101;51.600;7.310;2023-07-20T09:49:13;1.55;;;0.80;;
14052;SDS011;7101;51.600;7.310;2023-07-20T09:51:41;1.10;;;0.90;;
14052;SDS011;7101;51.600;7.310;2023-07-20T09:54:09;1.88;;;1.25;;
14052;SDS011;7101;51.600;7.310;2023-07-20T09:56:37;1.70;;;1.10;;
14052;SDS011;7101;51.600;7.310;2023-07-20T09:59:06;1.30;;;1.20;;
14052;SDS011;7101;51.600;7.310;2023-07-20T10:01:33;1.90;;;1.10;;
14052;SDS011;7101;51.600;7.310;2023-07-20T10:04:02;1.02;;;0.85;;
14052;SDS011;7101;51.600;7.310;2023-07-20T10:06:34;1.02;;;0.93;;
14052;SDS011;7101;51.600;7.310;2023-07-20T10:09:05;0.80;;;0.80;;
14052;SDS011;7101;51.600;7.310;2023-07-20T10:11:35;3.13;;;1.00;;
14052;SDS011;7101;51.600;7.310;2023-07-20T10:14:08;1.23;;;0.82;;
14052;SDS011;7101;51.600;7.310;2023-07-20T10:16:39;1.90;;;0.98;;
14052;SDS011;7101;51.600;7.310;2023-07-20T10:19:13;2.67;;;1.35;;
14052;SDS011;7101;51.600;7.310;2023-07-20T10:21:54;1.27;;;1.10;;
14052;SDS011;7101;51.600;7.310;2023-07-20T10:24:23;1.50;;;1.20;;
14052;SDS011;7101;51.600;7.310;2023-07-20T10:26:50;1.30;;;1.10;;
14052;SDS011;7101;51.600;7.310;2023-07-20T10:29:17;1.23;;;1.10;;
14052;SDS011;7101;51.600;7.310;2023-07-20T10:31:45;1.60;;;1.20;;
14052;SDS011;7101;51.600;7.310;2023-07-20T10:34:12;1.38;;;1.10;;
14052;SDS011;7101;51.600;7.310;2023-07-20T10:36:43;2.15;;;1.10;;
14052;SDS011;7101;51.600;7.310;2023-07-20T10:39:23;4.72;;;1.25;;
14052;SDS011;7101;51.600;7.310;2023-07-20T10:42:03;2.05;;;1.40;;
14052;SDS011;7101;51.600;7.310;2023-07-20T10:44:33;2.83;;;1.08;;
14052;SDS011;7101;51.600;7.310;2023-07-20T10:47:03;1.42;;;1.10;;
14052;SDS011;7101;51.600;7.310;2023-07-20T10:49:35;1.10;;;1.00;;
14052;SDS011;7101;51.600;7.310;2023-07-20T10:52:25;1.23;;;1.08;;
14052;SDS011;7101;51.600;7.310;2023-07-20T10:55:11;0.93;;;0.90;;
14052;SDS011;7101;51.600;7.310;2023-07-20T10:57:43;1.45;;;1.02;;
14052;SDS011;7101;51.600;7.310;2023-07-20T11:00:37;2.33;;;1.25;;
14052;SDS011;7101;51.600;7.310;2023-07-20T11:03:26;1.35;;;1.00;;
14052;SDS011;7101;51.600;7.310;2023-07-20T11:05:54;2.35;;;0.90;;
14052;SDS011;7101;51.600;7.310;2023-07-20T11:08:37;1.25;;;1.00;;
14052;SDS011;7101;51.600;7.310;2023-07-20T11:11:23;1.00;;;0.90;;
14052;SDS011;7101;51.600;7.310;2023-07-20T11:13:54;0.80;;;0.73;;
14052;SDS011;7101;51.600;7.310;2023-07-20T11:19:15;0.85;;;0.77;;
14052;SDS011;7101;51.600;7.310;2023-07-20T11:21:44;1.58;;;0.80;;
14052;SDS011;7101;51.600;7.310;2023-07-20T11:24:16;1.73;;;0.77;;
14052;SDS011;7101;51.600;7.310;2023-07-20T11:26:45;0.85;;;0.70;;
14052;SDS011;7101;51.600;7.310;2023-07-20T11:29:13;0.70;;;0.70;;
14052;SDS011;7101;51.600;7.310;2023-07-20T11:31:42;0.80;;;0.70;;
14052;SDS011;7101;51.600;7.310;2023-07-20T11:34:11;0.80;;;0.70;;
14052;SDS011;7101;51.600;7.310;2023-07-20T11:36:39;2.15;;;0.90;;
14052;SDS011;7101;51.600;7.310;2023-07-20T11:39:09;2.50;;;0.88;;
14052;SDS011;7101;51.600;7.310;2023-07-20T11:41:38;1.35;;;0.85;;
14052;SDS011;7101;51.600;7.310;2023-07-20T11:44:11;0.98;;;0.80;;
14052;SDS011;7101;51.600;7.310;2023-07-20T11:46:40;0.75;;;0.70;;
14052;SDS011;7101;51.600;7.310;2023-07-20T11:49:08;1.42;;;0.75;;
14052;SDS011;7101;51.600;7.310;2023-07-20T11:51:35;1.02;;;0.80;;
14052;SDS011;7101;51.600;7.310;2023-07-20T11:54:03;0.98;;;0.88;;
14052;SDS011;7101;51.600;7.310;2023-07-20T11:56:32;0.90;;;0.75;;
14052;SDS011;7101;51.600;7.310;2023-07-20T11:58:59;2.15;;;0.90;;
14052;SDS011;7101;51.600;7.310;2023-07-20T12:01:33;1.00;;;0.80;;
14052;SDS011;7101;51.600;7.310;2023-07-20T12:04:00;1.30;;;0.70;;
14052;SDS011;7101;51.600;7.310;2023-07-20T12:06:35;2.08;;;0.80;;
14052;SDS011;7101;51.600;7.310;2023-07-20T12:09:02;1.20;;;0.80;;
14052;SDS011;7101;51.600;7.310;2023-07-20T12:11:33;2.55;;;1.00;;
14052;SDS011;7101;51.600;7.310;2023-07-20T12:14:02;1.13;;;0.80;;
14052;SDS011;7101;51.600;7.310;2023-07-20T12:16:30;1.42;;;0.70;;
14052;SDS011;7101;51.600;7.310;2023-07-20T12:19:02;0.70;;;0.70;;
14052;SDS011;7101;51.600;7.310;2023-07-20T12:21:29;0.90;;;0.70;;
14052;SDS011;7101;51.600;7.310;2023-07-20T12:23:57;0.80;;;0.77;;
14052;SDS011;7101;51.600;7.310;2023-07-20T12:26:26;1.70;;;0.70;;
14052;SDS011;7101;51.600;7.310;2023-07-20T12:28:55;0.77;;;0.70;;
14052;SDS011;7101;51.600;7.310;2023-07-20T12:31:24;1.00;;;0.82;;
14052;SDS011;7101;51.600;7.310;2023-07-20T12:33:52;0.77;;;0.68;;
14052;SDS011;7101;51.600;7.310;2023-07-20T12:36:21;1.65;;;0.77;;
14052;SDS011;7101;51.600;7.310;2023-07-20T12:38:49;1.83;;;0.88;;
14052;SDS011;7101;51.600;7.310;2023-07-20T12:41:17;0.93;;;0.70;;
14052;SDS011;7101;51.600;7.310;2023-07-20T12:43:44;1.27;;;0.80;;
14052;SDS011;7101;51.600;7.310;2023-07-20T12:46:12;0.52;;;0.50;;
14052;SDS011;7101;51.600;7.310;2023-07-20T12:48:40;2.80;;;0.70;;
14052;SDS011;7101;51.600;7.310;2023-07-20T12:51:08;0.70;;;0.70;;
14052;SDS011;7101;51.600;7.310;2023-07-20T12:53:38;1.30;;;0.70;;
14052;SDS011;7101;51.600;7.310;2023-07-20T12:56:05;0.70;;;0.70;;
14052;SDS011;7101;51.600;7.310;2023-07-20T12:58:32;1.05;;;0.80;;
14052;SDS011;7101;51.600;7.310;2023-07-20T13:01:00;0.77;;;0.60;;
14052;SDS011;7101;51.600;7.310;2023-07-20T13:03:27;1.40;;;0.80;;
14052;SDS011;7101;51.600;7.310;2023-07-20T13:05:55;1.05;;;0.60;;
14052;SDS011;7101;51.600;7.310;2023-07-20T13:08:23;0.60;;;0.60;;
14052;SDS011;7101;51.600;7.310;2023-07-20T13:10:53;1.35;;;0.70;;
14052;SDS011;7101;51.600;7.310;2023-07-20T13:13:20;0.90;;;0.70;;
14052;SDS011;7101;51.600;7.310;2023-07-20T13:15:48;1.10;;;0.63;;
14052;SDS011;7101;51.600;7.310;2023-07-20T13:18:15;0.80;;;0.80;;
14052;SDS011;7101;51.600;7.310;2023-07-20T13:20:43;0.93;;;0.77;;
14052;SDS011;7101;51.600;7.310;2023-07-20T13:23:10;0.63;;;0.63;;
14052;SDS011;7101;51.600;7.310;2023-07-20T13:25:37;1.25;;;0.90;;
14052;SDS011;7101;51.600;7.310;2023-07-20T13:28:05;0.80;;;0.70;;
14052;SDS011;7101;51.600;7.310;2023-07-20T13:30:33;0.88;;;0.75;;
14052;SDS011;7101;51.600;7.310;2023-07-20T13:33:00;1.95;;;0.85;;
14052;SDS011;7101;51.600;7.310;2023-07-20T13:35:28;1.70;;;0.80;;
14052;SDS011;7101;51.600;7.310;2023-07-20T13:37:55;0.82;;;0.70;;
14052;SDS011;7101;51.600;7.310;2023-07-20T13:40:22;0.98;;;0.70;;
14052;SDS011;7101;51.600;7.310;2023-07-20T13:42:49;2.65;;;0.70;;
14052;SDS011;7101;51.600;7.310;2023-07-20T13:45:17;1.17;;;0.80;;
14052;SDS011;7101;51.600;7.310;2023-07-20T13:47:45;2.85;;;0.90;;
14052;SDS011;7101;51.600;7.310;2023-07-20T13:50:11;1.42;;;0.70;;
14052;SDS011;7101;51.600;7.310;2023-07-20T13:52:39;0.90;;;0.60;;
14052;SDS011;7101;51.600;7.310;2023-07-20T13:55:06;0.85;;;0.77;;
14052;SDS011;7101;51.600;7.310;2023-07-20T13:57:33;0.60;;;0.60;;
14052;SDS011;7101;51.600;7.310;2023-07-20T14:00:00;1.15;;;0.70;;
14052;SDS011;7101;51.600;7.310;2023-07-20T14:02:30;3.17;;;1.00;;
14052;SDS011;7101;51.600;7.310;2023-07-20T14:04:57;1.55;;;1.00;;
14052;SDS011;7101;51.600;7.310;2023-07-20T14:07:25;1.17;;;0.90;;
14052;SDS011;7101;51.600;7.310;2023-07-20T14:09:52;1.10;;;0.73;;
14052;SDS011;7101;51.600;7.310;2023-07-20T14:12:19;1.65;;;0.85;;
14052;SDS011;7101;51.600;7.310;2023-07-20T14:14:46;1.52;;;0.82;;
14052;SDS011;7101;51.600;7.310;2023-07-20T14:17:13;1.65;;;0.75;;
14052;SDS011;7101;51.600;7.310;2023-07-20T14:19:41;0.93;;;0.70;;
14052;SDS011;7101;51.600;7.310;2023-07-20T14:22:08;1.50;;;0.88;;
14052;SDS011;7101;51.600;7.310;2023-07-20T14:24:35;0.88;;;0.80;;
14052;SDS011;7101;51.600;7.310;2023-07-20T14:27:02;1.20;;;0.70;;
14052;SDS011;7101;51.600;7.310;2023-07-20T14:29:30;0.88;;;0.88;;
14052;SDS011;7101;51.600;7.310;2023-07-20T14:31:58;0.70;;;0.70;;
14052;SDS011;7101;51.600;7.310;2023-07-20T14:34:25;0.98;;;0.85;;
14052;SDS011;7101;51.600;7.310;2023-07-20T14:36:53;1.00;;;0.90;;
14052;SDS011;7101;51.600;7.310;2023-07-20T14:39:20;1.30;;;0.80;;
14052;SDS011;7101;51.600;7.310;2023-07-20T14:41:47;0.95;;;0.70;;
14052;SDS011;7101;51.600;7.310;2023-07-20T14:44:18;0.82;;;0.80;;
14052;SDS011;7101;51.600;7.310;2023-07-20T14:46:46;0.95;;;0.65;;
14052;SDS011;7101;51.600;7.310;2023-07-20T14:49:13;1.27;;;0.85;;
14052;SDS011;7101;51.600;7.310;2023-07-20T14:51:41;1.60;;;0.75;;
14052;SDS011;7101;51.600;7.310;2023-07-20T14:54:13;0.77;;;0.70;;
14052;SDS011;7101;51.600;7.310;2023-07-20T14:56:47;1.42;;;0.77;;
14052;SDS011;7101;51.600;7.310;2023-07-20T14:59:16;2.10;;;0.70;;
14052;SDS011;7101;51.600;7.310;2023-07-20T15:01:43;1.00;;;0.80;;
14052;SDS011;7101;51.600;7.310;2023-07-20T15:04:11;1.15;;;0.80;;
14052;SDS011;7101;51.600;7.310;2023-07-20T15:06:38;1.35;;;0.90;;
14052;SDS011;7101;51.600;7.310;2023-07-20T15:09:05;1.77;;;0.95;;
14052;SDS011;7101;51.600;7.310;2023-07-20T15:11:37;1.70;;;0.90;;
14052;SDS011;7101;51.600;7.310;2023-07-20T15:14:04;1.90;;;0.60;;
14052;SDS011;7101;51.600;7.310;2023-07-20T15:16:34;0.75;;;0.75;;